createdAt,value
2023-04-02T00:01:26.515Z,99650.18
2023-04-02T00:04:08.395Z,99650.14
2023-04-02T00:06:44.222Z,99660.27
2023-04-02T00:09:27.117Z,99660.48
2023-04-02T00:11:56.280Z,99662.44
2023-04-02T00:14:26.459Z,99665.98
2023-04-02T00:16:56.724Z,99666.30
2023-04-02T00:19:30.799Z,99670.52
2023-04-02T00:21:58.550Z,99671.64
2023-04-02T00:24:27.022Z,99673.42
2023-04-02T00:26:55.905Z,99674.82
2023-04-02T00:29:24.389Z,99679.90
2023-04-02T00:31:53.839Z,99680.55
2023-04-02T00:34:25.865Z,99679.70
2023-04-02T00:36:54.389Z,99681.83
2023-04-02T00:39:25.693Z,99685.13
2023-04-02T00:42:04.657Z,99684.94
2023-04-02T00:44:34.547Z,99686.11
2023-04-02T00:47:08.712Z,99687.44
2023-04-02T00:49:39.884Z,99690.15
2023-04-02T00:52:10.509Z,99694.95
2023-04-02T00:54:42.754Z,99694.02
2023-04-02T00:57:17.525Z,99697.48
2023-04-02T00:59:54.704Z,99699.09
2023-04-02T01:02:27.708Z,99699.30
2023-04-02T01:04:57.693Z,99705.15
2023-04-02T01:07:38.608Z,99704.63
2023-04-02T01:10:21.448Z,99707.20
2023-04-02T01:12:57.063Z,99705.86
2023-04-02T01:15:30.332Z,99707.38
2023-04-02T01:18:26.279Z,99706.39
2023-04-02T01:21:15.406Z,99709.02
2023-04-02T01:23:54.036Z,99710.39
2023-04-02T01:26:31.249Z,99710.67
2023-04-02T01:29:07.240Z,99716.74
2023-04-02T01:31:36.321Z,99716.92
2023-04-02T01:34:07.223Z,99718.09
2023-04-02T01:36:41.088Z,99722.86
2023-04-02T01:39:16.468Z,99723.64
2023-04-02T01:41:49.093Z,99721.22
2023-04-02T01:44:21.348Z,99730.03
2023-04-02T01:46:50.140Z,99731.11
2023-04-02T01:49:21.577Z,99729.51
2023-04-02T01:51:56.188Z,99731.85
2023-04-02T01:54:28.207Z,99733.52
2023-04-02T01:56:57.383Z,99734.67
2023-04-02T01:59:26.305Z,99735.91
2023-04-02T02:01:59.029Z,99739.48
2023-04-02T02:04:27.558Z,99744.16
2023-04-02T02:06:58.006Z,99747.59
2023-04-02T02:09:29.033Z,99748.09
2023-04-02T02:11:59.142Z,99755.50
2023-04-02T02:14:28.636Z,99757.31
2023-04-02T02:17:01.433Z,99758.86
2023-04-02T02:19:34.326Z,99764.27
2023-04-02T02:22:09.324Z,99771.91
2023-04-02T02:24:37.888Z,99778.82
2023-04-02T02:27:34.929Z,99776.59
2023-04-02T02:30:09.981Z,99779.39
2023-04-02T02:32:43.123Z,99780.42
2023-04-02T02:35:18.499Z,99784.88
2023-04-02T02:37:48.983Z,99782.42
2023-04-02T02:40:21.669Z,99785.53
2023-04-02T02:42:52.289Z,99792.02
2023-04-02T02:45:24.462Z,99792.70
2023-04-02T02:47:54.012Z,99793.60
2023-04-02T02:50:24.335Z,99795.71
2023-04-02T02:52:55.304Z,99797.73
2023-04-02T02:55:27.256Z,99800.90
2023-04-02T02:57:57.901Z,99799.80
2023-04-02T03:00:27.103Z,99800.85
2023-04-02T03:02:57.461Z,99804.83
2023-04-02T03:05:28.004Z,99807.57
2023-04-02T03:07:57.754Z,99805.76
2023-04-02T03:10:32.810Z,99807.33
2023-04-02T03:13:08.228Z,99813.05
2023-04-02T03:15:41.960Z,99815.37
2023-04-02T03:18:13.675Z,99816.23
2023-04-02T03:20:46.907Z,99823.30
2023-04-02T03:23:20.511Z,99826.23
2023-04-02T03:25:53.636Z,99834.13
2023-04-02T03:28:25.493Z,99834.05
2023-04-02T03:30:56.841Z,99833.65
2023-04-02T03:33:27.805Z,99835.61
2023-04-02T03:35:59.969Z,99835.52
2023-04-02T03:38:31.102Z,99840.95
2023-04-02T03:41:05.304Z,99847.86
2023-04-02T03:43:36.760Z,99856.73
2023-04-02T03:46:13.304Z,99859.53
2023-04-02T03:48:45.007Z,99860.42
2023-04-02T03:51:17.808Z,99870.52
2023-04-02T03:53:47.288Z,99872.14
2023-04-02T03:56:26.048Z,99876.09
2023-04-02T03:59:01.634Z,99877.52
2023-04-02T04:01:33.859Z,99885.19
2023-04-02T04:04:06.804Z,99883.30
2023-04-02T04:06:36.238Z,99883.98
2023-04-02T04:09:09.755Z,99889.86
2023-04-02T04:11:44.579Z,99891.25
2023-04-02T04:14:16.974Z,99894.05
2023-04-02T04:16:47.753Z,99896.55
2023-04-02T04:19:18.922Z,99900.36
2023-04-02T04:21:47.351Z,99901.34
2023-04-02T04:24:21.166Z,99906.08
2023-04-02T04:26:54.589Z,99910.35
2023-04-02T04:29:33.373Z,99913.25
2023-04-02T04:32:17.515Z,99921.19
2023-04-02T04:34:51.053Z,99920.53
2023-04-02T04:37:24.593Z,99921.20
2023-04-02T04:39:56.411Z,99918.52
2023-04-02T04:42:27.257Z,99927.73
2023-04-02T04:44:59.157Z,99929.68
2023-04-02T04:47:31.608Z,99932.73
2023-04-02T04:50:04.393Z,99934.02
2023-04-02T04:52:36.482Z,99939.58
2023-04-02T04:55:22.684Z,99943.88
2023-04-02T04:57:51.756Z,99946.89
2023-04-02T05:00:21.963Z,99955.56
2023-04-02T05:02:53.895Z,99962.45
2023-04-02T05:05:26.714Z,99966.76
2023-04-02T05:08:00.060Z,99970.13
2023-04-02T05:10:34.945Z,99970.27
2023-04-02T05:13:07.418Z,99971.16
2023-04-02T05:15:41.453Z,99975.46
2023-04-02T05:18:12.710Z,99978.52
2023-04-02T05:20:45.388Z,99978.69
2023-04-02T05:23:17.905Z,99980.28
2023-04-02T05:25:55.261Z,99977.59
2023-04-02T05:28:29.080Z,99982.52
2023-04-02T05:31:02.580Z,99993.42
2023-04-02T05:33:33.318Z,99999.43
2023-04-02T05:36:05.178Z,100005.92
2023-04-02T05:38:35.622Z,100007.26
2023-04-02T05:41:07.232Z,100011.35
2023-04-02T05:43:37.661Z,100012.26
2023-04-02T05:46:15.555Z,100020.38
2023-04-02T05:48:45.630Z,100022.79
2023-04-02T05:51:19.138Z,100025.94
2023-04-02T05:53:51.819Z,100030.02
2023-04-02T05:56:23.618Z,100033.67
2023-04-02T05:58:54.392Z,100035.76
2023-04-02T06:01:29.470Z,100040.63
2023-04-02T06:04:03.814Z,100042.23
2023-04-02T06:06:46.419Z,100047.94
2023-04-02T06:09:18.746Z,100050.02
2023-04-02T06:11:50.547Z,100050.30
2023-04-02T06:14:19.081Z,100050.31
2023-04-02T06:16:47.804Z,100056.47
2023-04-02T06:19:19.642Z,100056.04
2023-04-02T06:21:49.568Z,100063.30
2023-04-02T06:24:21.767Z,100069.69
2023-04-02T06:26:53.322Z,100079.83
2023-04-02T06:29:29.572Z,100086.79
2023-04-02T06:32:00.181Z,100091.98
2023-04-02T06:34:30.298Z,100100.50
2023-04-02T06:37:00.959Z,100105.20
2023-04-02T06:39:29.499Z,100102.70
2023-04-02T06:42:01.408Z,100098.52
2023-04-02T06:44:33.373Z,100099.33
2023-04-02T06:47:05.799Z,100109.65
2023-04-02T06:49:38.152Z,100115.27
2023-04-02T06:52:11.868Z,100117.39
2023-04-02T06:54:40.366Z,100122.77
2023-04-02T06:57:11.567Z,100128.83
2023-04-02T06:59:40.001Z,100133.16
2023-04-02T07:02:21.759Z,100137.24
2023-04-02T07:04:50.488Z,100142.48
2023-04-02T07:07:18.960Z,100143.35
2023-04-02T07:09:47.372Z,100141.06
2023-04-02T07:12:18.405Z,100141.80
2023-04-02T07:14:47.415Z,100143.16
2023-04-02T07:17:17.174Z,100146.41
2023-04-02T07:19:48.898Z,100153.68
2023-04-02T07:22:17.860Z,100153.84
2023-04-02T07:24:46.450Z,100159.14
2023-04-02T07:27:15.553Z,100159.27
2023-04-02T07:29:43.884Z,100162.90
2023-04-02T07:32:13.029Z,100168.03
2023-04-02T07:34:42.140Z,100171.86
2023-04-02T07:37:13.746Z,100177.45
2023-04-02T07:39:42.404Z,100179.05
2023-04-02T07:42:10.825Z,100177.90
2023-04-02T07:44:39.755Z,100183.23
2023-04-02T07:47:09.998Z,100183.50
2023-04-02T07:49:38.395Z,100186.42
2023-04-02T07:52:07.039Z,100190.60
2023-04-02T07:54:35.511Z,100195.25
2023-04-02T07:57:04.079Z,100198.11
2023-04-02T07:59:32.534Z,100196.33
2023-04-02T08:02:02.179Z,100194.74
2023-04-02T08:04:30.851Z,100199.70
2023-04-02T08:06:59.307Z,100202.02
2023-04-02T08:09:28.044Z,100201.08
2023-04-02T08:11:56.378Z,100208.80
2023-04-02T08:14:24.913Z,100211.90
2023-04-02T08:16:55.139Z,100221.98
2023-04-02T08:19:23.847Z,100227.60
2023-04-02T08:21:53.838Z,100225.40
2023-04-02T08:24:22.704Z,100226.32
2023-04-02T08:26:52.953Z,100225.05
2023-04-02T08:29:21.767Z,100229.62
2023-04-02T08:31:50.569Z,100238.17
2023-04-02T08:34:19.003Z,100238.37
2023-04-02T08:36:47.739Z,100240.80
2023-04-02T08:39:16.285Z,100242.27
2023-04-02T08:41:48.954Z,100248.16
2023-04-02T08:44:27.269Z,100253.46
2023-04-02T08:46:58.813Z,100256.80
2023-04-02T08:49:30.995Z,100265.30
2023-04-02T08:52:00.572Z,100273.99
2023-04-02T08:54:31.209Z,100275.33
2023-04-02T08:57:04.423Z,100281.16
2023-04-02T08:59:35.023Z,100283.55
2023-04-02T09:02:24.034Z,100281.52
2023-04-02T09:04:52.722Z,100290.36
2023-04-02T09:07:21.179Z,100292.22
2023-04-02T09:09:50.087Z,100295.60
2023-04-02T09:12:21.155Z,100298.45
2023-04-02T09:15:01.452Z,100300.80
2023-04-02T09:17:42.728Z,100302.68
2023-04-02T09:20:18.545Z,100308.33
2023-04-02T09:22:49.980Z,100308.80
2023-04-02T09:25:22.098Z,100304.02
2023-04-02T09:27:51.326Z,100306.88
2023-04-02T09:30:30.121Z,100307.81
2023-04-02T09:33:01.528Z,100308.69
2023-04-02T09:35:32.095Z,100306.40
2023-04-02T09:38:19.140Z,100303.99
2023-04-02T09:40:50.625Z,100304.33
2023-04-02T09:43:20.301Z,100303.84
2023-04-02T09:45:58.986Z,100305.39
2023-04-02T09:48:30.159Z,100311.61
2023-04-02T09:51:21.022Z,100313.93
2023-04-02T09:53:50.786Z,100322.95
2023-04-02T09:56:22.659Z,100320.96
2023-04-02T09:59:05.033Z,100324.82
2023-04-02T10:01:35.549Z,100328.77
2023-04-02T10:04:06.038Z,100330.47
2023-04-02T10:06:35.197Z,100333.45
2023-04-02T10:09:24.158Z,100337.98
2023-04-02T10:11:54.501Z,100338.63
2023-04-02T10:14:25.739Z,100343.65
2023-04-02T10:16:56.631Z,100350.81
2023-04-02T10:19:29.589Z,100360.02
2023-04-02T10:21:59.268Z,100358.27
2023-04-02T10:24:28.449Z,100360.67
2023-04-02T10:27:02.937Z,100362.80
2023-04-02T10:29:52.847Z,100368.27
2023-04-02T10:32:24.975Z,100368.80
2023-04-02T10:34:57.263Z,100369.46
2023-04-02T10:37:51.484Z,100374.33
2023-04-02T10:40:23.220Z,100379.42
2023-04-02T10:42:56.911Z,100386.27
2023-04-02T10:45:36.597Z,100386.81
2023-04-02T10:48:13.703Z,100387.84
2023-04-02T10:50:47.812Z,100391.70
2023-04-02T10:53:18.494Z,100393.23
2023-04-02T10:55:51.869Z,100405.78
2023-04-02T10:58:25.085Z,100411.52
2023-04-02T11:00:56.462Z,100412.77
2023-04-02T11:03:33.836Z,100419.86
2023-04-02T11:06:05.849Z,100425.44
2023-04-02T11:08:41.459Z,100428.48
2023-04-02T11:11:14.015Z,100438.02
2023-04-02T11:13:50.706Z,100433.39
2023-04-02T11:16:19.609Z,100431.52
2023-04-02T11:19:19.894Z,100436.50
2023-04-02T11:21:58.562Z,100438.64
2023-04-02T11:24:36.963Z,100441.73
2023-04-02T11:27:13.838Z,100448.48
2023-04-02T11:29:43.467Z,100453.23
2023-04-02T11:32:30.830Z,100460.45
2023-04-02T11:35:07.124Z,100464.19
2023-04-02T11:37:38.677Z,100467.63
2023-04-02T11:40:39.589Z,100476.92
2023-04-02T11:43:40.964Z,100475.30
2023-04-02T11:46:42.428Z,100481.61
2023-04-02T11:49:39.407Z,100481.07
2023-04-02T11:52:25.789Z,100488.46
2023-04-02T11:55:04.080Z,100494.48
2023-04-02T11:57:42.858Z,100498.23
2023-04-02T12:00:28.310Z,100500.92
2023-04-02T12:03:13.014Z,100499.77
2023-04-02T12:05:45.900Z,100502.80
2023-04-02T12:08:23.989Z,100504.52
2023-04-02T12:10:55.818Z,100513.95
2023-04-02T12:13:51.527Z,100513.75
2023-04-02T12:16:20.587Z,100514.43
2023-04-02T12:18:53.310Z,100516.18
2023-04-02T12:21:24.776Z,100519.80
2023-04-02T12:23:55.737Z,100517.59
2023-04-02T12:26:31.654Z,100521.44
2023-04-02T12:29:25.581Z,100519.57
2023-04-02T12:31:54.883Z,100522.45
2023-04-02T12:34:25.624Z,100524.21
2023-04-02T12:36:55.723Z,100525.05
2023-04-02T12:39:25.994Z,100525.55
2023-04-02T12:41:57.373Z,100532.12
2023-04-02T12:44:27.707Z,100530.11
2023-04-02T12:46:56.608Z,100531.88
2023-04-02T12:49:31.531Z,100531.23
2023-04-02T12:52:02.938Z,100535.36
2023-04-02T12:54:36.532Z,100539.04
2023-04-02T12:57:39.485Z,100548.20
2023-04-02T13:00:36.575Z,100555.79
2023-04-02T13:03:22.084Z,100561.20
2023-04-02T13:05:56.645Z,100559.28
2023-04-02T13:08:27.032Z,100555.73
2023-04-02T13:10:57.726Z,100557.34
2023-04-02T13:13:32.614Z,100559.42
2023-04-02T13:16:02.902Z,100563.30
2023-04-02T13:18:33.300Z,100571.02
2023-04-02T13:21:02.951Z,100570.06
2023-04-02T13:23:37.284Z,100571.71
2023-04-02T13:26:16.038Z,100576.36
2023-04-02T13:28:50.510Z,100581.84
2023-04-02T13:31:19.013Z,100584.77
2023-04-02T13:33:47.686Z,100586.40
2023-04-02T13:36:17.547Z,100587.60
2023-04-02T13:38:45.986Z,100588.49
2023-04-02T13:41:22.217Z,100594.55
2023-04-02T13:43:51.536Z,100592.88
2023-04-02T13:46:22.689Z,100598.41
2023-04-02T13:48:52.452Z,100599.50
2023-04-02T13:51:24.229Z,100602.44
2023-04-02T13:53:55.212Z,100602.58
2023-04-02T13:56:24.249Z,100605.50
2023-04-02T13:58:52.761Z,100609.71
2023-04-02T14:01:23.335Z,100610.36
2023-04-02T14:03:52.069Z,100606.13
2023-04-02T14:06:24.434Z,100608.48
2023-04-02T14:08:57.471Z,100613.79
2023-04-02T14:11:44.451Z,100616.07
2023-04-02T14:14:28.557Z,100617.17
2023-04-02T14:17:07.254Z,100620.60
2023-04-02T14:19:48.877Z,100625.55
2023-04-02T14:22:26.607Z,100631.27
2023-04-02T14:25:02.408Z,100638.78
2023-04-02T14:27:37.878Z,100641.97
2023-04-02T14:30:12.201Z,100643.24
2023-04-02T14:32:46.935Z,100642.11
2023-04-02T14:35:20.798Z,100644.32
2023-04-02T14:37:55.314Z,100648.81
2023-04-02T14:40:27.117Z,100653.36
2023-04-02T14:43:00.097Z,100654.79
2023-04-02T14:45:41.581Z,100660.44
2023-04-02T14:48:21.130Z,100664.36
2023-04-02T14:50:51.727Z,100667.17
2023-04-02T14:53:23.007Z,100672.77
2023-04-02T14:55:53.248Z,100678.02
2023-04-02T14:58:25.247Z,100677.89
2023-04-02T15:00:58.169Z,100678.05
2023-04-02T15:03:31.025Z,100687.92
2023-04-02T15:06:02.357Z,100690.77
2023-04-02T15:08:34.672Z,100695.56
2023-04-02T15:11:08.670Z,100696.15
2023-04-02T15:13:37.958Z,100703.78
2023-04-02T15:16:11.492Z,100704.97
2023-04-02T15:18:40.241Z,100711.27
2023-04-02T15:21:43.443Z,100712.81
2023-04-02T15:24:22.622Z,100721.30
2023-04-02T15:26:56.784Z,100725.59
2023-04-02T15:29:31.024Z,100729.84
2023-04-02T15:32:04.065Z,100737.27
2023-04-02T15:34:35.911Z,100738.19
2023-04-02T15:37:17.306Z,100743.59
2023-04-02T15:39:56.523Z,100741.38
2023-04-02T15:42:27.819Z,100745.18
2023-04-02T15:45:21.201Z,100744.20
2023-04-02T15:48:10.425Z,100750.33
2023-04-02T15:50:47.080Z,100750.77
2023-04-02T15:53:26.983Z,100759.54
2023-04-02T15:56:05.101Z,100761.27
2023-04-02T15:58:45.034Z,100764.75
2023-04-02T16:01:21.488Z,100771.64
2023-04-02T16:04:09.654Z,100774.66
2023-04-02T16:06:47.732Z,100780.70
2023-04-02T16:09:21.449Z,100786.96
2023-04-02T16:11:51.617Z,100788.86
2023-04-02T16:14:25.482Z,100790.98
2023-04-02T16:16:57.525Z,100794.64
2023-04-02T16:19:30.323Z,100799.45
2023-04-02T16:22:05.022Z,100802.83
2023-04-02T16:24:33.689Z,100808.94
2023-04-02T16:27:14.306Z,100809.85
2023-04-02T16:29:55.600Z,100813.68
2023-04-02T16:32:38.330Z,100818.16
2023-04-02T16:35:40.620Z,100823.63
2023-04-02T16:38:18.261Z,100833.16
2023-04-02T16:41:07.004Z,100834.92
2023-04-02T16:43:41.364Z,100839.27
2023-04-02T16:46:13.539Z,100840.46
2023-04-02T16:48:46.593Z,100847.17
2023-04-02T16:51:20.544Z,100854.95
2023-04-02T16:54:01.136Z,100854.09
2023-04-02T16:56:43.478Z,100859.77
2023-04-02T16:59:20.063Z,100860.83
2023-04-02T17:01:57.018Z,100858.52
2023-04-02T17:04:49.158Z,100859.55
2023-04-02T17:07:26.471Z,100863.62
2023-04-02T17:10:02.615Z,100867.42
2023-04-02T17:12:36.532Z,100869.18
2023-04-02T17:15:20.668Z,100870.21
2023-04-02T17:17:57.686Z,100876.93
2023-04-02T17:20:27.046Z,100874.48
2023-04-02T17:22:56.768Z,100877.58
2023-04-02T17:25:28.598Z,100879.35
2023-04-02T17:27:57.080Z,100882.14
2023-04-02T17:30:36.046Z,100885.08
2023-04-02T17:33:07.913Z,100892.73
2023-04-02T17:35:48.510Z,100897.65
2023-04-02T17:38:23.347Z,100904.09
2023-04-02T17:40:56.149Z,100909.91
2023-04-02T17:43:36.735Z,100910.51
2023-04-02T17:46:09.506Z,100908.98
2023-04-02T17:48:42.425Z,100913.33
2023-04-02T17:51:16.713Z,100920.45
2023-04-02T17:53:58.373Z,100919.62
2023-04-02T17:56:38.380Z,100920.02
2023-04-02T17:59:29.073Z,100919.94
2023-04-02T18:02:04.923Z,100923.02
2023-04-02T18:04:40.934Z,100926.60
2023-04-02T18:07:31.173Z,100923.02
2023-04-02T18:10:06.821Z,100928.52
2023-04-02T18:12:48.927Z,100929.48
2023-04-02T18:15:38.016Z,100935.76
2023-04-02T18:18:10.503Z,100939.91
2023-04-02T18:20:42.920Z,100941.85
2023-04-02T18:23:16.156Z,100944.87
2023-04-02T18:25:50.575Z,100945.63
2023-04-02T18:28:33.533Z,100951.41
2023-04-02T18:31:04.820Z,100957.02
2023-04-02T18:34:03.592Z,100956.80
2023-04-02T18:36:38.937Z,100961.48
2023-04-02T18:39:13.170Z,100960.29
2023-04-02T18:41:49.318Z,100960.61
2023-04-02T18:44:32.556Z,100966.66
2023-04-02T18:47:07.222Z,100969.98
2023-04-02T18:49:39.592Z,100970.69
2023-04-02T18:52:13.967Z,100977.04
2023-04-02T18:54:45.362Z,100977.89
2023-04-02T18:57:16.205Z,100978.67
2023-04-02T18:59:48.774Z,100979.23
2023-04-02T19:02:30.259Z,100984.56
2023-04-02T19:05:02.039Z,100987.44
2023-04-02T19:07:34.951Z,100989.82
2023-04-02T19:10:11.491Z,100991.54
2023-04-02T19:12:40.137Z,100992.98
2023-04-02T19:15:18.991Z,100993.64
2023-04-02T19:17:49.472Z,100999.39
2023-04-02T19:20:25.322Z,100993.48
2023-04-02T19:23:00.290Z,100992.07
2023-04-02T19:25:39.952Z,100992.23
2023-04-02T19:28:13.196Z,100989.95
2023-04-02T19:30:56.442Z,100994.55
2023-04-02T19:33:44.221Z,100998.13
2023-04-02T19:36:23.617Z,100997.11
2023-04-02T19:39:03.378Z,100996.70
2023-04-02T19:41:37.506Z,101003.15
2023-04-02T19:44:09.761Z,101009.79
2023-04-02T19:46:39.505Z,101008.63
2023-04-02T19:49:10.418Z,101013.69
2023-04-02T19:51:38.771Z,101015.21
2023-04-02T19:54:07.349Z,101013.70
2023-04-02T19:56:35.822Z,101011.28
2023-04-02T19:59:17.166Z,101012.20
2023-04-02T20:01:47.219Z,101016.73
2023-04-02T20:04:16.016Z,101019.52
2023-04-02T20:06:44.496Z,101020.25
2023-04-02T20:09:13.089Z,101020.80
2023-04-02T20:11:41.512Z,101020.61
2023-04-02T20:14:09.889Z,101023.06
2023-04-02T20:16:38.409Z,101025.04
2023-04-02T20:19:06.933Z,101028.73
2023-04-02T20:21:37.501Z,101027.27
2023-04-02T20:24:07.178Z,101029.40
2023-04-02T20:26:36.188Z,101029.95
2023-04-02T20:29:04.894Z,101029.77
2023-04-02T20:31:33.374Z,101031.27
2023-04-02T20:34:04.404Z,101032.59
2023-04-02T20:36:32.879Z,101034.73
2023-04-02T20:39:01.540Z,101038.15
2023-04-02T20:41:30.591Z,101042.80
2023-04-02T20:43:59.017Z,101046.98
2023-04-02T20:46:27.724Z,101045.13
2023-04-02T20:48:56.560Z,101049.27
2023-04-02T20:51:25.291Z,101056.03
2023-04-02T20:53:54.910Z,101054.68
2023-04-02T20:56:23.404Z,101057.94
2023-04-02T20:58:52.077Z,101062.12
2023-04-02T21:01:22.271Z,101065.23
2023-04-02T21:03:54.814Z,101062.77
2023-04-02T21:06:25.744Z,101061.98
2023-04-02T21:08:54.454Z,101067.48
2023-04-02T21:11:23.213Z,101070.61
2023-04-02T21:13:52.318Z,101071.29
2023-04-02T21:16:22.203Z,101075.29
2023-04-02T21:18:52.159Z,101076.61
2023-04-02T21:21:22.230Z,101075.48
2023-04-02T21:23:56.393Z,101075.23
2023-04-02T21:26:25.774Z,101080.39
2023-04-02T21:28:54.728Z,101081.40
2023-04-02T21:31:24.497Z,101082.20
2023-04-02T21:33:55.064Z,101086.96
2023-04-02T21:36:25.095Z,101083.44
2023-04-02T21:38:55.312Z,101090.02
2023-04-02T21:41:25.809Z,101090.58
2023-04-02T21:43:55.187Z,101088.79
2023-04-02T21:46:26.259Z,101095.90
2023-04-02T21:48:56.463Z,101098.22
2023-04-02T21:51:26.254Z,101102.67
2023-04-02T21:53:55.030Z,101100.30
2023-04-02T21:56:25.744Z,101105.79
2023-04-02T21:58:56.096Z,101105.89
2023-04-02T22:01:28.039Z,101108.77
2023-04-02T22:03:58.494Z,101110.91
2023-04-02T22:06:28.721Z,101113.36
2023-04-02T22:08:59.363Z,101115.09
2023-04-02T22:11:30.623Z,101116.67
2023-04-02T22:13:59.542Z,101123.75
2023-04-02T22:16:29.773Z,101122.80
2023-04-02T22:19:00.409Z,101129.37
2023-04-02T22:21:29.794Z,101132.33
2023-04-02T22:24:00.347Z,101133.25
2023-04-02T22:26:29.396Z,101138.45
2023-04-02T22:28:57.780Z,101143.35
2023-04-02T22:31:27.695Z,101139.71
2023-04-02T22:33:57.299Z,101146.98
2023-04-02T22:36:27.229Z,101147.20
2023-04-02T22:38:55.703Z,101148.48
2023-04-02T22:41:25.788Z,101150.80
2023-04-02T22:43:55.020Z,101156.03
2023-04-02T22:46:24.001Z,101160.59
2023-04-02T22:48:53.175Z,101162.17
2023-04-02T22:51:22.801Z,101160.83
2023-04-02T22:53:52.321Z,101164.45
2023-04-02T22:56:22.666Z,101164.88
2023-04-02T22:58:51.017Z,101167.18
2023-04-02T23:01:22.039Z,101164.48
2023-04-02T23:03:52.209Z,101164.77
2023-04-02T23:06:21.036Z,101167.66
2023-04-02T23:08:49.455Z,101164.54
2023-04-02T23:11:21.364Z,101169.16
2023-04-02T23:13:52.044Z,101169.09
2023-04-02T23:16:22.052Z,101170.48
2023-04-02T23:18:51.193Z,101169.34
2023-04-02T23:21:21.124Z,101171.73
2023-04-02T23:23:50.510Z,101176.36
2023-04-02T23:26:21.121Z,101170.64
2023-04-02T23:28:50.386Z,101180.09
2023-04-02T23:31:20.407Z,101182.42
2023-04-02T23:33:48.883Z,101185.52
2023-04-02T23:36:24.200Z,101185.80
2023-04-02T23:38:54.715Z,101187.88
2023-04-02T23:41:24.427Z,101190.31
2023-04-02T23:43:53.345Z,101192.27
2023-04-02T23:46:22.398Z,101194.46
2023-04-02T23:48:51.666Z,101194.45
2023-04-02T23:51:20.201Z,101201.09
2023-04-02T23:53:49.215Z,101200.94
2023-04-02T23:56:18.354Z,101202.13
2023-04-02T23:58:46.966Z,101204.98
